Time;durP1;ratioP1;P1;durP2;ratioP2;P2;SDS_P1;SDS_P2;PMS_P1;PMS_P2;Temp;Humidity;BMP_temperature;BMP_pressure;BME280_temperature;BME280_humidity;BME280_pressure;Samples;Min_cycle;Max_cycle;Signal;HPM_P1;HPM_P2
2023/07/21 00:01:01;;;;;;;0.00;0.00;;;;;;;15.09;100.00;96213.66;5044021;28;20044;-76
2023/07/21 00:03:46;;;;;;;0.03;0.03;;;;;;;15.00;100.00;96212.66;5048881;28;20156;-78
2023/07/21 00:06:32;;;;;;;0.00;0.00;;;;;;;15.17;100.00;96213.03;5038152;28;20452;-78
2023/07/21 00:09:19;;;;;;;0.00;0.00;;;;;;;15.26;100.00;96208.66;5052459;28;20048;-76
2023/07/21 00:12:05;;;;;;;0.10;0.10;;;;;;;15.18;100.00;96213.88;5041159;28;20052;-77
2023/07/21 00:14:52;;;;;;;0.00;0.00;;;;;;;15.18;100.00;96198.50;5056245;28;20260;-77
2023/07/21 00:17:38;;;;;;;0.10;0.10;;;;;;;15.15;100.00;96204.44;5053522;28;20051;-78
2023/07/21 00:20:24;;;;;;;0.10;0.10;;;;;;;15.26;100.00;96205.97;5048784;28;20043;-78
2023/07/21 00:23:10;;;;;;;0.10;0.10;;;;;;;15.26;100.00;96197.09;5052395;28;20041;-76
2023/07/21 00:25:56;;;;;;;0.10;0.10;;;;;;;15.21;100.00;96197.94;5050473;28;20540;-78
2023/07/21 00:28:43;;;;;;;0.10;0.10;;;;;;;14.88;100.00;96196.88;5046673;28;20041;-78
2023/07/21 00:31:29;;;;;;;0.05;0.05;;;;;;;14.92;100.00;96189.81;5053594;28;20048;-76
2023/07/21 00:34:15;;;;;;;0.00;0.00;;;;;;;15.03;100.00;96187.88;5048335;28;20044;-79
2023/07/21 00:37:01;;;;;;;0.10;0.10;;;;;;;15.07;100.00;96186.19;5045963;28;20808;-79
2023/07/21 00:39:47;;;;;;;0.00;0.00;;;;;;;14.96;100.00;96188.19;5049739;28;20044;-78
2023/07/21 00:42:33;;;;;;;0.10;0.10;;;;;;;15.13;100.00;96192.34;5045903;28;20044;-79
2023/07/21 00:45:19;;;;;;;0.00;0.00;;;;;;;14.97;100.00;96192.47;5052205;28;20048;-80
2023/07/21 00:48:09;;;;;;;0.00;0.00;;;;;;;14.92;100.00;96184.44;5051624;28;20086;-79
2023/07/21 00:50:58;;;;;;;0.10;0.10;;;;;;;15.07;100.00;96191.59;5051653;28;20882;-77
2023/07/21 00:53:45;;;;;;;0.10;0.10;;;;;;;15.15;100.00;96188.28;5048841;28;20078;-77
2023/07/21 00:56:32;;;;;;;0.08;0.08;;;;;;;14.97;100.00;96186.28;5038585;28;20555;-78
2023/07/21 00:59:18;;;;;;;0.10;0.10;;;;;;;14.97;100.00;96180.91;5027787;28;21039;-79
2023/07/21 01:02:05;;;;;;;0.05;0.05;;;;;;;15.05;100.00;96183.00;5023778;28;20525;-79
2023/07/21 01:04:51;;;;;;;0.05;0.05;;;;;;;15.02;100.00;96176.28;5037020;28;20142;-79
2023/07/21 01:07:40;;;;;;;0.00;0.00;;;;;;;14.99;100.00;96178.72;5033960;28;20044;-77
2023/07/21 01:10:28;;;;;;;0.10;0.10;;;;;;;14.80;100.00;96170.53;5049493;28;20037;-77
2023/07/21 01:13:15;;;;;;;0.00;0.00;;;;;;;14.87;100.00;96164.84;5034111;28;20257;-77
2023/07/21 01:16:05;;;;;;;0.00;0.00;;;;;;;14.88;100.00;96164.56;5051101;28;20083;-80
2023/07/21 01:18:53;;;;;;;0.10;0.10;;;;;;;14.92;100.00;96168.28;5049898;28;20060;-78
2023/07/21 01:21:58;;;;;;;0.00;0.00;;;;;;;14.88;100.00;96161.84;5032466;28;20441;-79
2023/07/21 01:24:51;;;;;;;0.10;0.10;;;;;;;14.90;100.00;96158.88;5039568;28;20363;-77
2023/07/21 01:27:39;;;;;;;0.10;0.10;;;;;;;14.83;100.00;96156.50;5050171;28;20528;-79
2023/07/21 01:30:26;;;;;;;0.10;0.10;;;;;;;14.81;100.00;96150.59;5044473;28;20040;-78
2023/07/21 01:33:15;;;;;;;0.10;0.10;;;;;;;14.72;100.00;96153.09;5023565;28;21022;-77
2023/07/21 01:36:02;;;;;;;0.10;0.10;;;;;;;14.69;100.00;96150.16;5033538;28;20099;-78
2023/07/21 01:38:48;;;;;;;0.10;0.10;;;;;;;14.73;100.00;96145.81;5042996;28;20037;-79
2023/07/21 01:41:35;;;;;;;0.10;0.10;;;;;;;14.79;100.00;96138.50;5051597;28;20403;-80
2023/07/21 01:44:22;;;;;;;0.10;0.10;;;;;;;14.76;100.00;96142.56;5051079;28;20509;-79
2023/07/21 01:47:11;;;;;;;0.00;0.00;;;;;;;14.83;100.00;96144.94;5022759;28;20055;-77
2023/07/21 01:49:58;;;;;;;0.10;0.10;;;;;;;14.80;100.00;96134.72;5020202;28;20403;-76
2023/07/21 01:52:45;;;;;;;0.10;0.10;;;;;;;14.77;100.00;96139.56;5036651;28;20127;-78
2023/07/21 01:55:46;;;;;;;0.10;0.10;;;;;;;14.80;100.00;96126.66;5048955;28;20036;-79
2023/07/21 01:58:35;;;;;;;0.10;0.10;;;;;;;14.71;100.00;96131.84;5024057;28;20044;-79
2023/07/21 02:01:23;;;;;;;0.00;0.00;;;;;;;14.66;100.00;96127.28;5037286;28;20040;-79
2023/07/21 02:04:09;;;;;;;0.10;0.10;;;;;;;14.64;100.00;96120.59;5051048;28;20051;-78
2023/07/21 02:06:55;;;;;;;0.00;0.00;;;;;;;14.73;100.00;96117.00;5044296;28;20071;-79
2023/07/21 02:09:41;;;;;;;0.10;0.10;;;;;;;14.63;100.00;96124.34;5048264;28;20064;-79
2023/07/21 02:12:28;;;;;;;0.00;0.00;;;;;;;14.71;100.00;96121.06;5034600;28;20584;-80
2023/07/21 02:15:21;;;;;;;0.00;0.00;;;;;;;14.77;100.00;96114.53;5048311;28;20405;-78
2023/07/21 02:18:07;;;;;;;0.00;0.00;;;;;;;14.69;100.00;96107.88;5031701;28;20048;-79
2023/07/21 02:20:54;;;;;;;0.00;0.00;;;;;;;14.71;100.00;96110.31;5022682;28;21269;-78
2023/07/21 02:23:39;;;;;;;0.00;0.00;;;;;;;14.54;100.00;96112.56;5034053;28;20118;-79
2023/07/21 02:26:25;;;;;;;0.00;0.00;;;;;;;14.50;100.00;96109.66;5037466;28;20413;-78
2023/07/21 02:29:11;;;;;;;0.00;0.00;;;;;;;14.49;100.00;96110.75;5037346;28;20124;-79
2023/07/21 02:31:57;;;;;;;0.00;0.00;;;;;;;14.45;100.00;96112.34;5036494;28;20384;-80
2023/07/21 02:34:43;;;;;;;0.00;0.00;;;;;;;14.32;100.00;96112.97;5036574;28;20238;-78
2023/07/21 02:37:29;;;;;;;0.05;0.05;;;;;;;14.34;100.00;96126.97;5047672;28;20149;-77
2023/07/21 02:40:17;;;;;;;0.10;0.10;;;;;;;14.45;100.00;96123.94;5049506;28;20080;-77
2023/07/21 02:43:02;;;;;;;0.05;0.05;;;;;;;14.39;100.00;96133.09;5042567;28;20066;-77
2023/07/21 02:45:53;;;;;;;0.05;0.05;;;;;;;14.19;100.00;96122.50;5033085;28;20053;-80
2023/07/21 02:48:38;;;;;;;0.00;0.00;;;;;;;13.69;100.00;96091.31;5020758;28;20048;-78
2023/07/21 02:51:24;;;;;;;0.10;0.10;;;;;;;13.57;100.00;96079.00;5052898;28;20044;-77
2023/07/21 02:54:11;;;;;;;0.10;0.10;;;;;;;13.57;100.00;96111.25;5039447;28;20128;-76
2023/07/21 02:56:57;;;;;;;0.00;0.00;;;;;;;13.85;100.00;96120.56;5038265;28;20072;-78
2023/07/21 02:59:44;;;;;;;0.10;0.10;;;;;;;13.74;100.00;96113.59;5040329;28;20502;-78
2023/07/21 03:02:34;;;;;;;0.00;0.00;;;;;;;13.33;100.00;96118.34;5039234;28;20048;-79
2023/07/21 03:05:21;;;;;;;0.00;0.00;;;;;;;13.53;100.00;96112.88;5038048;28;20094;-80
2023/07/21 03:08:08;;;;;;;0.10;0.10;;;;;;;13.56;100.00;96117.72;5037210;28;20239;-78
2023/07/21 03:10:55;;;;;;;0.00;0.00;;;;;;;13.66;100.00;96111.50;5019007;28;20582;-78
2023/07/21 03:13:46;;;;;;;0.10;0.10;;;;;;;13.77;100.00;96101.47;5029986;28;20037;-77
2023/07/21 03:16:33;;;;;;;0.10;0.10;;;;;;;13.78;100.00;96090.47;5036365;28;20110;-77
2023/07/21 03:19:19;;;;;;;0.05;0.05;;;;;;;13.69;100.00;96083.25;5040543;28;20037;-79
2023/07/21 03:22:06;;;;;;;0.00;0.00;;;;;;;13.61;100.00;96081.94;5037830;28;20642;-79
2023/07/21 03:24:51;;;;;;;0.00;0.00;;;;;;;13.64;100.00;96076.81;5040653;28;20533;-78
2023/07/21 03:27:41;;;;;;;0.10;0.10;;;;;;;13.59;100.00;96070.66;5038099;28;20534;-79
2023/07/21 03:30:29;;;;;;;0.10;0.10;;;;;;;13.49;100.00;96079.59;5025028;28;20063;-77
2023/07/21 03:33:23;;;;;;;0.08;0.08;;;;;;;13.63;100.00;96080.59;5040380;28;20046;-80
2023/07/21 03:36:21;;;;;;;0.10;0.10;;;;;;;13.59;100.00;96081.41;5040478;28;20044;-77
2023/07/21 03:39:07;;;;;;;0.10;0.10;;;;;;;13.60;100.00;96081.13;5029361;28;20045;-80
2023/07/21 03:41:53;;;;;;;0.10;0.10;;;;;;;13.53;100.00;96080.63;5048287;28;20450;-79
2023/07/21 03:44:40;;;;;;;0.10;0.10;;;;;;;13.42;100.00;96068.31;5036390;28;20284;-78
2023/07/21 03:47:30;;;;;;;0.10;0.10;;;;;;;13.31;100.00;96058.72;5042381;28;20331;-77
2023/07/21 03:50:17;;;;;;;0.10;0.10;;;;;;;13.33;100.00;96067.28;5039864;28;20044;-79
2023/07/21 03:53:04;;;;;;;0.00;0.00;;;;;;;13.13;100.00;96061.94;5034946;28;20045;-76
2023/07/21 03:55:50;;;;;;;0.00;0.00;;;;;;;13.01;100.00;96059.59;5036263;28;20044;-76
2023/07/21 03:58:36;;;;;;;0.10;0.10;;;;;;;13.10;100.00;96056.06;5034102;28;20052;-79
2023/07/21 04:01:22;;;;;;;0.10;0.10;;;;;;;13.25;100.00;96055.22;5038390;28;20409;-78
2023/07/21 04:04:08;;;;;;;0.10;0.10;;;;;;;13.24;100.00;96059.00;5038680;28;20694;-78
2023/07/21 04:06:54;;;;;;;0.10;0.10;;;;;;;13.42;100.00;96071.00;5041050;28;20060;-78
2023/07/21 04:09:40;;;;;;;0.05;0.05;;;;;;;13.47;100.00;96068.31;5046000;28;20051;-77
2023/07/21 04:12:26;;;;;;;0.10;0.10;;;;;;;13.46;100.00;96066.69;5038262;28;20611;-76
2023/07/21 04:15:12;;;;;;;0.10;0.10;;;;;;;13.61;100.00;96060.44;5055226;28;20124;-75
2023/07/21 04:17:58;;;;;;;0.10;0.10;;;;;;;13.53;100.00;96055.63;5050338;28;20419;-79
2023/07/21 04:20:43;;;;;;;0.05;0.05;;;;;;;13.65;100.00;96054.22;5034275;28;20044;-78
2023/07/21 04:23:29;;;;;;;0.10;0.10;;;;;;;13.58;100.00;96055.63;5034842;28;20040;-77
2023/07/21 04:26:16;;;;;;;0.10;0.10;;;;;;;13.66;100.00;96052.34;5040016;28;20045;-79
2023/07/21 04:29:02;;;;;;;0.00;0.00;;;;;;;13.83;100.00;96049.28;5039153;28;20115;-79
2023/07/21 04:31:49;;;;;;;0.10;0.10;;;;;;;13.95;100.00;96047.06;5037611;28;20053;-76
2023/07/21 04:34:35;;;;;;;0.10;0.10;;;;;;;14.02;100.00;96046.75;5038696;28;20486;-77
2023/07/21 04:37:22;;;;;;;0.10;0.10;;;;;;;14.12;100.00;96054.75;5039389;28;20040;-78
2023/07/21 04:40:12;;;;;;;0.10;0.10;;;;;;;13.99;100.00;96048.09;5039016;28;20087;-77
2023/07/21 04:42:59;;;;;;;0.10;0.10;;;;;;;14.14;100.00;96052.56;5038628;28;20052;-77
2023/07/21 04:45:45;;;;;;;0.00;0.00;;;;;;;14.01;100.00;96045.94;5038269;28;20572;-77
2023/07/21 04:48:39;;;;;;;0.00;0.00;;;;;;;14.07;100.00;96058.25;5036026;28;20044;-77
2023/07/21 04:51:27;;;;;;;0.10;0.10;;;;;;;14.20;100.00;96054.94;5040079;28;20433;-78
2023/07/21 04:54:13;;;;;;;0.10;0.10;;;;;;;14.29;100.00;96070.50;5039652;28;20543;-79
2023/07/21 04:56:59;;;;;;;0.10;0.10;;;;;;;14.35;100.00;96080.13;5047994;28;20033;-79
2023/07/21 04:59:46;;;;;;;0.10;0.10;;;;;;;14.11;100.00;96107.75;5038447;28;20043;-76
2023/07/21 05:02:32;;;;;;;0.10;0.10;;;;;;;14.03;100.00;96113.72;5038251;28;20045;-79
2023/07/21 05:05:18;;;;;;;0.10;0.10;;;;;;;13.89;100.00;96099.28;5044629;28;20319;-74
2023/07/21 05:08:09;;;;;;;0.00;0.00;;;;;;;13.95;100.00;96111.63;5033017;28;20125;-77
2023/07/21 05:10:55;;;;;;;0.10;0.10;;;;;;;13.88;100.00;96113.81;5038909;28;20031;-78
2023/07/21 05:13:41;;;;;;;0.10;0.10;;;;;;;13.89;100.00;96120.78;5038172;28;20032;-78
2023/07/21 05:16:47;;;;;;;0.20;0.20;;;;;;;13.96;100.00;96112.41;5052385;28;20043;-79
2023/07/21 05:19:54;;;;;;;0.00;0.00;;;;;;;14.02;100.00;96112.13;5032212;28;20311;-77
2023/07/21 05:23:00;;;;;;;0.10;0.10;;;;;;;14.05;100.00;96122.31;5049983;28;20093;-77
2023/07/21 05:26:06;;;;;;;0.05;0.05;;;;;;;14.14;100.00;96120.63;5051481;28;20083;-77
2023/07/21 05:28:55;;;;;;;0.03;0.03;;;;;;;14.15;100.00;96119.53;5038538;28;20054;-78
2023/07/21 05:31:52;;;;;;;0.10;0.10;;;;;;;14.22;100.00;96116.53;5032922;28;20253;-76
2023/07/21 05:34:42;;;;;;;0.10;0.10;;;;;;;14.22;100.00;96111.97;5028756;28;20075;-77
2023/07/21 05:37:28;;;;;;;0.10;0.10;;;;;;;14.22;100.00;96103.91;5039756;28;20602;-77
2023/07/21 05:40:14;;;;;;;0.10;0.10;;;;;;;14.23;100.00;96115.47;5049023;28;20234;-76
2023/07/21 05:43:02;;;;;;;0.10;0.10;;;;;;;14.21;100.00;96102.28;5037820;28;20104;-77
2023/07/21 05:45:50;;;;;;;0.10;0.10;;;;;;;13.93;100.00;96100.34;5038829;28;20048;-78
2023/07/21 05:48:36;;;;;;;0.10;0.10;;;;;;;13.96;100.00;96097.09;5039923;28;20067;-79
2023/07/21 05:51:24;;;;;;;0.10;0.10;;;;;;;14.00;100.00;96097.31;5027310;28;20062;-77
2023/07/21 05:54:16;;;;;;;0.10;0.10;;;;;;;13.84;100.00;96099.28;5040799;28;20186;-77
2023/07/21 05:57:02;;;;;;;0.00;0.00;;;;;;;13.99;100.00;96090.34;5051736;28;20503;-76
2023/07/21 05:59:58;;;;;;;0.10;0.10;;;;;;;14.12;100.00;96090.53;5040675;28;20395;-76
2023/07/21 06:02:44;;;;;;;0.10;0.10;;;;;;;14.20;100.00;96084.53;5028382;28;20051;-77
2023/07/21 06:05:32;;;;;;;0.10;0.10;;;;;;;13.93;100.00;96086.91;5042634;28;20667;-76
2023/07/21 06:08:51;;;;;;;0.10;0.10;;;;;;;13.81;100.00;96078.34;5040104;28;20044;-78
2023/07/21 06:12:09;;;;;;;0.08;0.08;;;;;;;13.90;100.00;96084.75;5028672;28;20087;-77
2023/07/21 06:15:15;;;;;;;0.10;0.10;;;;;;;14.00;100.00;96073.09;5051577;28;20048;-78
2023/07/21 06:18:22;;;;;;;0.00;0.00;;;;;;;14.35;100.00;96075.56;5014287;28;20469;-77
2023/07/21 06:21:11;;;;;;;0.10;0.10;;;;;;;14.57;100.00;96075.13;5029203;28;20079;-78
2023/07/21 06:23:59;;;;;;;0.10;0.10;;;;;;;14.72;100.00;96071.50;5018522;28;20145;-78
2023/07/21 06:26:45;;;;;;;0.00;0.00;;;;;;;14.91;100.00;96063.50;5038542;28;20036;-79
2023/07/21 06:29:33;;;;;;;0.00;0.00;;;;;;;15.00;100.00;96062.59;5043464;28;20513;-79
2023/07/21 06:32:19;;;;;;;0.10;0.10;;;;;;;14.85;100.00;96070.81;5053520;28;20048;-79
2023/07/21 06:35:17;;;;;;;0.10;0.10;;;;;;;14.89;100.00;96077.25;5045067;28;20044;-78
2023/07/21 06:38:26;;;;;;;0.10;0.10;;;;;;;14.79;100.00;96082.75;5049681;28;20040;-79
2023/07/21 06:41:30;;;;;;;0.10;0.10;;;;;;;14.47;100.00;96080.59;5056897;28;20040;-79
2023/07/21 06:44:45;;;;;;;0.05;0.05;;;;;;;14.27;100.00;96078.84;4985573;28;20047;-78
2023/07/21 06:47:46;;;;;;;0.10;0.10;;;;;;;14.19;100.00;96074.88;5040981;28;20055;-77
2023/07/21 06:51:04;;;;;;;0.10;0.10;;;;;;;14.17;100.00;96087.81;5022334;28;20086;-79
2023/07/21 06:53:51;;;;;;;0.10;0.10;;;;;;;14.23;100.00;96080.47;5055775;28;20047;-79
2023/07/21 06:56:36;;;;;;;0.10;0.10;;;;;;;14.59;100.00;96078.34;5040856;28;20418;-77
2023/07/21 06:59:23;;;;;;;0.10;0.10;;;;;;;14.62;100.00;96077.75;5043033;28;20541;-76
2023/07/21 07:02:09;;;;;;;0.30;0.20;;;;;;;14.88;100.00;96069.47;5026551;28;20608;-76
2023/07/21 07:04:55;;;;;;;0.10;0.10;;;;;;;14.99;100.00;96076.34;5054106;28;20468;-77
2023/07/21 07:07:41;;;;;;;0.08;0.08;;;;;;;15.07;100.00;96075.72;5047791;28;20123;-78
2023/07/21 07:10:29;;;;;;;0.10;0.10;;;;;;;15.07;100.00;96078.41;5057710;28;20538;-77
2023/07/21 07:13:14;;;;;;;0.10;0.10;;;;;;;15.37;100.00;96079.97;5037611;28;20042;-76
2023/07/21 07:16:03;;;;;;;0.10;0.10;;;;;;;15.62;100.00;96072.69;5058271;28;20474;-79
2023/07/21 07:18:48;;;;;;;0.10;0.10;;;;;;;15.53;100.00;96069.81;5037518;28;20395;-78
2023/07/21 07:21:34;;;;;;;0.10;0.10;;;;;;;15.73;100.00;96077.66;5055789;28;20045;-77
2023/07/21 07:24:20;;;;;;;0.10;0.10;;;;;;;16.13;100.00;96078.19;5055189;28;20090;-79
2023/07/21 07:27:07;;;;;;;0.10;0.10;;;;;;;16.36;100.00;96088.09;5041817;28;20531;-79
2023/07/21 07:29:53;;;;;;;0.10;0.10;;;;;;;16.59;100.00;96086.38;5055131;28;20043;-77
2023/07/21 07:32:39;;;;;;;0.10;0.10;;;;;;;16.85;100.00;96081.34;5038895;28;20528;-78
2023/07/21 07:35:25;;;;;;;0.10;0.10;;;;;;;17.06;100.00;96084.50;5057054;28;20521;-78
2023/07/21 07:38:11;;;;;;;0.00;0.00;;;;;;;17.14;100.00;96081.13;5053953;28;20040;-78
2023/07/21 07:41:02;;;;;;;0.10;0.10;;;;;;;17.09;100.00;96086.59;5056220;28;20036;-78
2023/07/21 07:43:48;;;;;;;0.10;0.10;;;;;;;17.02;100.00;96088.09;5052173;28;20515;-79
2023/07/21 07:46:35;;;;;;;0.10;0.10;;;;;;;16.88;100.00;96086.16;5057657;28;20033;-78
2023/07/21 07:49:20;;;;;;;0.10;0.10;;;;;;;16.88;100.00;96082.66;5053701;28;20131;-79
2023/07/21 07:52:08;;;;;;;0.00;0.00;;;;;;;16.95;100.00;96086.56;5055441;28;20040;-79
2023/07/21 07:54:57;;;;;;;0.10;0.10;;;;;;;16.95;100.00;96094.69;5042712;28;20600;-78
2023/07/21 07:57:43;;;;;;;0.03;0.03;;;;;;;17.05;100.00;96084.81;5050665;28;20040;-77
2023/07/21 08:00:28;;;;;;;0.08;0.08;;;;;;;17.03;100.00;96089.69;5057568;28;20463;-79
2023/07/21 08:03:14;;;;;;;0.10;0.10;;;;;;;16.99;100.00;96101.09;5053601;28;20055;-77
2023/07/21 08:06:00;;;;;;;0.10;0.10;;;;;;;16.71;100.00;96094.81;5048692;28;20617;-77
2023/07/21 08:08:46;;;;;;;0.10;0.10;;;;;;;16.67;100.00;96103.81;5047021;28;20478;-77
2023/07/21 08:11:32;;;;;;;0.10;0.10;;;;;;;16.59;100.00;96109.88;5056749;28;20133;-76
2023/07/21 08:14:18;;;;;;;0.10;0.10;;;;;;;16.48;100.00;96111.13;5052519;28;20044;-77
2023/07/21 08:17:04;;;;;;;0.03;0.03;;;;;;;16.44;100.00;96111.72;5050928;28;20041;-78
2023/07/21 08:19:50;;;;;;;0.10;0.10;;;;;;;16.42;100.00;96110.41;5043006;28;20045;-77
2023/07/21 08:22:36;;;;;;;0.10;0.10;;;;;;;16.36;100.00;96108.88;5052034;28;20115;-78
2023/07/21 08:25:22;;;;;;;0.10;0.10;;;;;;;16.35;100.00;96108.09;5019854;28;20247;-79
2023/07/21 08:28:08;;;;;;;0.10;0.10;;;;;;;16.26;100.00;96106.31;5038461;28;20052;-78
2023/07/21 08:30:54;;;;;;;0.10;0.10;;;;;;;16.43;100.00;96096.63;5054741;28;20075;-77
2023/07/21 08:33:40;;;;;;;0.10;0.10;;;;;;;16.42;100.00;96096.91;5053020;28;20799;-77
2023/07/21 08:36:26;;;;;;;0.10;0.10;;;;;;;16.85;100.00;96107.56;5042295;28;20493;-79
2023/07/21 08:39:12;;;;;;;0.10;0.10;;;;;;;17.11;100.00;96116.84;5051969;28;20569;-78
2023/07/21 08:42:00;;;;;;;0.10;0.10;;;;;;;17.29;100.00;96101.66;5052411;28;20482;-79
2023/07/21 08:44:47;;;;;;;0.17;0.17;;;;;;;17.45;100.00;96110.28;5036582;28;20124;-75
2023/07/21 08:47:33;;;;;;;0.10;0.10;;;;;;;17.75;100.00;96100.78;5048246;28;20064;-77
2023/07/21 08:50:20;;;;;;;0.10;0.10;;;;;;;18.13;100.00;96106.69;5042332;28;20044;-80
2023/07/21 08:53:06;;;;;;;0.10;0.10;;;;;;;18.59;100.00;96101.00;5050974;28;20040;-78
2023/07/21 08:55:56;;;;;;;0.10;0.10;;;;;;;18.88;100.00;96105.22;5051850;28;20055;-77
2023/07/21 08:58:43;;;;;;;0.10;0.10;;;;;;;19.07;100.00;96102.31;5035672;28;20110;-78
2023/07/21 09:01:29;;;;;;;0.10;0.10;;;;;;;18.84;100.00;96098.84;5047763;28;20310;-76
2023/07/21 09:04:19;;;;;;;0.10;0.10;;;;;;;18.95;100.00;96097.47;5053210;28;20044;-75
2023/07/21 09:07:07;;;;;;;0.10;0.10;;;;;;;18.91;100.00;96093.78;5053608;28;20219;-76
2023/07/21 09:09:53;;;;;;;0.20;0.20;;;;;;;19.29;100.00;96091.41;5051809;28;20044;-77
2023/07/21 09:12:38;;;;;;;0.10;0.10;;;;;;;19.45;100.00;96086.34;5050100;28;20327;-77
2023/07/21 09:15:24;;;;;;;0.10;0.10;;;;;;;19.24;100.00;96090.75;5049632;28;20036;-76
2023/07/21 09:18:10;;;;;;;0.10;0.10;;;;;;;18.84;100.00;96096.94;5049929;28;20040;-76
2023/07/21 09:20:56;;;;;;;0.10;0.10;;;;;;;18.97;100.00;96089.81;5047438;28;20076;-76
2023/07/21 09:23:42;;;;;;;0.10;0.10;;;;;;;19.28;100.00;96083.56;5051224;28;20036;-76
2023/07/21 09:26:29;;;;;;;0.10;0.10;;;;;;;18.63;100.00;96099.31;5024168;28;20036;-78
2023/07/21 09:29:18;;;;;;;0.10;0.10;;;;;;;18.95;100.00;96093.94;5047829;28;20052;-79
2023/07/21 09:32:14;;;;;;;0.10;0.10;;;;;;;18.50;100.00;96100.16;5053204;28;20040;-77
2023/07/21 09:35:02;;;;;;;0.00;0.00;;;;;;;18.93;100.00;96114.03;5037473;28;20454;-77
2023/07/21 09:37:51;;;;;;;0.10;0.10;;;;;;;19.02;100.00;96118.72;5053735;28;20651;-79
2023/07/21 09:40:41;;;;;;;0.10;0.10;;;;;;;19.26;100.00;96105.59;5035172;28;20394;-77
2023/07/21 09:43:28;;;;;;;0.10;0.10;;;;;;;19.81;100.00;96104.38;5054084;28;20154;-76
2023/07/21 09:46:14;;;;;;;0.13;0.13;;;;;;;19.90;100.00;96099.75;5038171;28;21292;-77
2023/07/21 09:49:00;;;;;;;0.20;0.20;;;;;;;19.95;100.00;96097.72;5037368;28;20044;-77
2023/07/21 09:51:49;;;;;;;0.10;0.10;;;;;;;20.11;100.00;96098.06;5052054;28;20280;-77
2023/07/21 09:54:41;;;;;;;0.10;0.10;;;;;;;20.25;100.00;96093.28;5053055;28;20063;-77
2023/07/21 09:57:34;;;;;;;0.10;0.10;;;;;;;20.23;100.00;96100.94;5051764;28;20055;-76
2023/07/21 10:00:27;;;;;;;0.10;0.10;;;;;;;20.31;100.00;96094.72;5050380;28;20379;-79
2023/07/21 10:03:14;;;;;;;0.10;0.10;;;;;;;20.39;100.00;96087.69;5052712;28;20168;-78
2023/07/21 10:06:03;;;;;;;0.10;0.10;;;;;;;20.67;100.00;96090.09;5053667;28;20040;-77
2023/07/21 10:08:50;;;;;;;0.10;0.10;;;;;;;20.73;100.00;96089.59;5050888;28;20608;-79
2023/07/21 10:11:36;;;;;;;0.10;0.10;;;;;;;20.98;100.00;96098.03;5034310;28;20197;-78
2023/07/21 10:14:33;;;;;;;0.10;0.10;;;;;;;21.11;99.86;96097.84;5048561;28;20040;-79
2023/07/21 10:17:24;;;;;;;0.10;0.10;;;;;;;20.97;100.00;96097.22;5054611;28;20396;-77
2023/07/21 10:20:11;;;;;;;0.10;0.10;;;;;;;21.12;100.00;96101.34;5051998;28;20157;-78
2023/07/21 10:22:57;;;;;;;0.13;0.13;;;;;;;21.49;100.00;96102.53;5050490;28;20412;-76
2023/07/21 10:26:03;;;;;;;0.10;0.10;;;;;;;21.49;100.00;96099.81;5051333;28;20045;-76
2023/07/21 10:28:51;;;;;;;0.13;0.13;;;;;;;21.70;100.00;96087.06;5036540;28;20051;-78
2023/07/21 10:31:38;;;;;;;0.10;0.10;;;;;;;21.78;100.00;96085.41;5042838;28;20041;-78
2023/07/21 10:34:32;;;;;;;0.10;0.10;;;;;;;21.68;100.00;96097.47;5044616;28;20073;-77
2023/07/21 10:37:18;;;;;;;0.10;0.10;;;;;;;21.58;100.00;96094.34;5039917;28;20462;-76
2023/07/21 10:40:07;;;;;;;0.10;0.10;;;;;;;22.11;98.73;96099.19;5051013;28;20047;-78
2023/07/21 10:42:53;;;;;;;0.10;0.10;;;;;;;22.52;94.46;96097.59;5035183;28;20044;-76
2023/07/21 10:45:39;;;;;;;0.10;0.10;;;;;;;23.11;94.32;96089.19;5039487;28;20094;-77
2023/07/21 10:48:26;;;;;;;0.10;0.10;;;;;;;23.97;91.04;96087.34;5052590;28;20045;-78
2023/07/21 10:51:11;;;;;;;0.10;0.10;;;;;;;23.64;90.56;96090.19;5052091;28;20109;-75
2023/07/21 10:53:57;;;;;;;0.00;0.00;;;;;;;23.02;96.66;96089.28;5030775;28;20501;-77
2023/07/21 10:56:53;;;;;;;0.20;0.10;;;;;;;22.95;94.20;96085.50;5031982;28;20037;-79
2023/07/21 10:59:39;;;;;;;0.05;0.05;;;;;;;22.49;97.29;96080.00;5026727;28;20431;-77
2023/07/21 11:02:27;;;;;;;0.10;0.10;;;;;;;22.35;97.92;96079.47;5024870;28;20487;-76
2023/07/21 11:05:15;;;;;;;0.00;0.00;;;;;;;22.30;96.92;96076.13;5014432;28;20938;-76
2023/07/21 11:08:01;;;;;;;0.00;0.00;;;;;;;21.97;99.65;96079.53;5017158;28;20147;-76
2023/07/21 11:10:46;;;;;;;0.00;0.00;;;;;;;21.83;100.00;96084.44;5024248;28;20122;-77
2023/07/21 11:13:33;;;;;;;0.10;0.10;;;;;;;21.87;98.94;96075.28;5035646;28;20135;-79
2023/07/21 11:16:19;;;;;;;0.03;0.03;;;;;;;21.98;100.00;96079.22;5035664;28;20075;-78
2023/07/21 11:19:05;;;;;;;0.08;0.08;;;;;;;22.28;97.84;96070.22;5033805;28;20543;-78
2023/07/21 11:21:51;;;;;;;0.10;0.10;;;;;;;22.09;98.41;96070.66;5017855;28;20041;-78
2023/07/21 11:24:37;;;;;;;0.10;0.10;;;;;;;21.57;97.57;96082.66;5025897;28;20048;-77
2023/07/21 11:27:23;;;;;;;0.00;0.00;;;;;;;22.16;94.18;96085.34;5030216;28;20318;-77
2023/07/21 11:30:10;;;;;;;0.08;0.08;;;;;;;22.33;93.62;96068.06;5028264;28;20052;-78
2023/07/21 11:33:09;;;;;;;0.10;0.10;;;;;;;22.29;93.17;96064.44;5034833;28;20041;-76
2023/07/21 11:35:55;;;;;;;0.10;0.10;;;;;;;22.42;93.32;96074.28;5032950;28;20069;-76
2023/07/21 11:38:41;;;;;;;0.10;0.10;;;;;;;21.25;93.41;96086.75;5036523;28;20029;-77
2023/07/21 11:41:39;;;;;;;0.10;0.10;;;;;;;21.11;97.35;96088.88;5035133;28;20076;-79
2023/07/21 11:44:35;;;;;;;0.00;0.00;;;;;;;21.59;96.62;96080.41;5035393;28;20044;-78
2023/07/21 11:47:21;;;;;;;0.10;0.10;;;;;;;21.49;93.43;96079.97;5036486;28;20059;-77
2023/07/21 11:50:07;;;;;;;0.10;0.10;;;;;;;21.51;91.75;96089.41;5034675;28;20103;-79
2023/07/21 11:52:53;;;;;;;0.10;0.10;;;;;;;21.46;90.74;96091.50;5034059;28;20048;-78
2023/07/21 11:55:39;;;;;;;0.08;0.08;;;;;;;21.46;92.88;96083.34;5033429;28;20346;-77
2023/07/21 11:58:26;;;;;;;0.10;0.10;;;;;;;21.29;93.40;96084.22;5033170;28;20045;-79
2023/07/21 12:01:11;;;;;;;0.10;0.10;;;;;;;21.01;94.02;96090.03;5024700;28;20039;-79
2023/07/21 12:03:57;;;;;;;0.10;0.10;;;;;;;20.76;94.57;96088.16;5033477;28;20052;-77
2023/07/21 12:06:43;;;;;;;0.10;0.10;;;;;;;20.50;96.09;96088.97;5030832;28;20063;-78
2023/07/21 12:09:31;;;;;;;0.10;0.10;;;;;;;20.07;97.67;96094.34;5025125;28;20391;-78
2023/07/21 12:12:17;;;;;;;0.10;0.10;;;;;;;19.97;100.00;96097.38;5026943;28;20049;-79
2023/07/21 12:15:06;;;;;;;0.10;0.10;;;;;;;19.66;100.00;96094.75;5026246;28;20045;-79
2023/07/21 12:17:52;;;;;;;0.03;0.03;;;;;;;19.72;100.00;96097.00;5010220;28;20041;-80
2023/07/21 12:20:41;;;;;;;0.10;0.10;;;;;;;19.72;100.00;96096.22;5016636;28;20272;-80
2023/07/21 12:23:27;;;;;;;0.10;0.10;;;;;;;19.68;100.00;96101.47;5027129;28;20044;-78
2023/07/21 12:26:13;;;;;;;0.00;0.00;;;;;;;19.77;100.00;96096.09;5026763;28;20037;-79
2023/07/21 12:28:59;;;;;;;0.00;0.00;;;;;;;19.74;100.00;96104.84;5032143;28;20049;-81
2023/07/21 12:31:45;;;;;;;0.10;0.10;;;;;;;19.34;100.00;96115.69;5002312;28;20146;-80
2023/07/21 12:34:34;;;;;;;0.10;0.10;;;;;;;18.87;100.00;96125.31;5017235;28;20049;-79
2023/07/21 12:37:19;;;;;;;0.10;0.10;;;;;;;18.68;100.00;96125.53;5024493;28;20190;-78
2023/07/21 12:40:15;;;;;;;0.10;0.10;;;;;;;18.65;100.00;96129.63;5035164;28;20077;-78
2023/07/21 12:43:01;;;;;;;0.03;0.03;;;;;;;18.35;100.00;96119.47;5032494;28;20045;-79
2023/07/21 12:45:47;;;;;;;0.10;0.10;;;;;;;18.20;100.00;96131.44;5027667;28;20033;-77
2023/07/21 12:48:33;;;;;;;0.10;0.10;;;;;;;17.92;100.00;96138.84;5031794;28;20045;-80
2023/07/21 12:51:19;;;;;;;0.10;0.10;;;;;;;17.39;100.00;96142.00;5029203;28;20048;-80
2023/07/21 12:54:06;;;;;;;0.10;0.10;;;;;;;17.56;100.00;96130.59;5019502;28;20349;-79
2023/07/21 12:56:52;;;;;;;0.13;0.13;;;;;;;17.87;100.00;96127.31;5034575;28;20150;-80
2023/07/21 12:59:38;;;;;;;0.10;0.10;;;;;;;17.46;100.00;96125.41;5035174;28;20084;-79
2023/07/21 13:02:24;;;;;;;0.10;0.10;;;;;;;17.55;100.00;96118.97;5033905;28;20044;-78
2023/07/21 13:05:11;;;;;;;0.10;0.10;;;;;;;17.24;100.00;96128.78;5035406;28;20113;-77